createdAt,value
2022-08-30T00:02:25.214Z,32.90
2022-08-30T00:04:54.335Z,32.30
2022-08-30T00:07:24.065Z,32.20
2022-08-30T00:09:51.174Z,32.40
2022-08-30T00:12:19.031Z,32.30
2022-08-30T00:17:14.443Z,32.30
2022-08-30T00:24:38.084Z,32.60
2022-08-30T00:27:07.905Z,32.70
2022-08-30T00:29:35.013Z,32.60
2022-08-30T00:32:04.082Z,32.70
2022-08-30T00:34:32.269Z,32.80
2022-08-30T00:36:59.310Z,32.60
2022-08-30T00:39:27.034Z,32.60
2022-08-30T00:41:54.149Z,32.80
2022-08-30T00:44:21.212Z,32.80
2022-08-30T00:46:48.386Z,32.90
2022-08-30T00:49:19.009Z,32.90
2022-08-30T00:51:46.546Z,32.70
2022-08-30T00:54:14.743Z,32.80
2022-08-30T00:56:41.915Z,32.80
2022-08-30T00:59:10.486Z,32.90
2022-08-30T01:01:37.959Z,32.90
2022-08-30T01:04:08.918Z,33.00
2022-08-30T01:06:37.166Z,33.00
2022-08-30T01:09:06.141Z,32.90
2022-08-30T01:11:37.906Z,33.10
2022-08-30T01:14:07.503Z,33.10
2022-08-30T01:16:36.396Z,33.10
2022-08-30T01:19:06.730Z,33.60
2022-08-30T01:21:49.055Z,33.00
2022-08-30T01:24:18.024Z,33.10
2022-08-30T01:26:45.142Z,33.10
2022-08-30T01:29:18.896Z,33.20
2022-08-30T01:31:47.143Z,33.20
2022-08-30T01:34:14.375Z,33.20
2022-08-30T01:36:47.565Z,33.30
2022-08-30T01:39:17.753Z,33.20
2022-08-30T01:41:47.965Z,33.40
2022-08-30T01:44:15.892Z,33.40
2022-08-30T01:46:48.489Z,33.90
2022-08-30T01:49:27.318Z,33.50
2022-08-30T01:52:00.936Z,33.40
2022-08-30T01:54:38.606Z,33.50
2022-08-30T01:57:10.105Z,33.40
2022-08-30T01:59:39.740Z,33.50
2022-08-30T02:02:08.276Z,33.40
2022-08-30T02:04:36.732Z,33.40
2022-08-30T02:07:07.658Z,33.50
2022-08-30T02:09:35.167Z,33.50
2022-08-30T02:12:02.600Z,33.70
2022-08-30T02:17:03.938Z,33.50
2022-08-30T02:19:31.293Z,33.50
2022-08-30T02:21:58.389Z,33.60
2022-08-30T02:24:28.383Z,33.60
2022-08-30T02:26:55.595Z,33.60
2022-08-30T02:29:24.225Z,33.70
2022-08-30T02:31:51.648Z,33.80
2022-08-30T02:34:19.782Z,34.30
2022-08-30T02:36:47.095Z,33.80
2022-08-30T02:39:17.825Z,33.90
2022-08-30T02:41:45.058Z,33.80
2022-08-30T02:46:40.244Z,33.80
2022-08-30T02:51:55.844Z,33.80
2022-08-30T02:56:50.902Z,33.90
2022-08-30T02:59:18.633Z,34.00
2022-08-30T03:01:45.830Z,33.90
2022-08-30T03:04:13.124Z,34.00
2022-08-30T03:06:41.362Z,34.00
2022-08-30T03:09:08.376Z,34.00
2022-08-30T03:23:55.338Z,34.30
2022-08-30T03:26:22.458Z,34.10
2022-08-30T03:31:16.949Z,34.20
2022-08-30T03:33:44.301Z,34.20
2022-08-30T03:36:12.058Z,34.30
2022-08-30T03:38:39.669Z,34.20
2022-08-30T03:41:09.763Z,34.20
2022-08-30T03:43:37.025Z,34.30
2022-08-30T03:46:14.324Z,34.30
2022-08-30T03:48:44.216Z,34.20
2022-08-30T03:51:11.370Z,34.30
2022-08-30T03:53:38.401Z,35.00
2022-08-30T03:56:05.654Z,34.30
2022-08-30T03:58:34.572Z,34.20
2022-08-30T04:01:01.740Z,34.30
2022-08-30T04:03:31.736Z,34.40
2022-08-30T04:05:58.973Z,34.50
2022-08-30T04:08:26.152Z,34.40
2022-08-30T04:13:27.038Z,34.60
2022-08-30T04:18:22.747Z,34.60
2022-08-30T04:20:52.733Z,34.60
2022-08-30T04:23:20.726Z,34.50
2022-08-30T04:25:47.858Z,34.50
2022-08-30T04:28:17.126Z,34.50
2022-08-30T04:30:45.541Z,34.60
2022-08-30T04:33:14.926Z,34.60
2022-08-30T04:35:46.230Z,34.70
2022-08-30T04:40:49.711Z,34.60
2022-08-30T04:43:19.929Z,36.50
2022-08-30T04:48:17.827Z,34.70
2022-08-30T04:53:15.098Z,34.70
2022-08-30T04:55:46.227Z,34.70
2022-08-30T04:58:14.197Z,34.70
2022-08-30T05:00:47.152Z,35.00
2022-08-30T05:05:50.082Z,34.80
2022-08-30T05:08:24.873Z,34.80
2022-08-30T05:10:52.903Z,34.80
2022-08-30T05:13:25.965Z,34.90
2022-08-30T05:16:09.795Z,34.90
2022-08-30T05:18:37.909Z,34.90
2022-08-30T05:21:08.819Z,34.90
2022-08-30T05:23:37.115Z,35.00
2022-08-30T05:26:15.009Z,35.10
2022-08-30T05:28:42.296Z,35.10
2022-08-30T05:31:24.346Z,35.10
2022-08-30T05:33:53.688Z,35.00
2022-08-30T05:36:27.225Z,35.10
2022-08-30T05:38:55.764Z,35.10
2022-08-30T05:41:27.138Z,35.20
2022-08-30T05:44:00.287Z,35.20
2022-08-30T05:49:06.073Z,35.10
2022-08-30T05:51:41.086Z,35.10
2022-08-30T05:54:15.130Z,35.20
2022-08-30T05:56:45.887Z,35.20
2022-08-30T05:59:16.239Z,35.30
2022-08-30T06:01:49.522Z,35.50
2022-08-30T06:04:22.337Z,36.00
2022-08-30T06:06:52.368Z,35.60
2022-08-30T06:09:19.799Z,35.50
2022-08-30T06:11:48.009Z,35.60
2022-08-30T06:14:17.899Z,36.30
2022-08-30T06:16:45.973Z,35.60
2022-08-30T06:19:15.165Z,36.30
2022-08-30T06:21:47.742Z,35.50
2022-08-30T06:24:15.162Z,36.20
2022-08-30T06:26:48.926Z,36.10
2022-08-30T06:29:21.792Z,36.50
2022-08-30T06:31:51.971Z,36.80
2022-08-30T06:34:22.035Z,36.90
2022-08-30T06:36:52.447Z,36.30
2022-08-30T06:39:27.910Z,35.60
2022-08-30T06:41:57.629Z,35.60
2022-08-30T06:44:25.081Z,35.30
2022-08-30T06:46:52.190Z,35.00
2022-08-30T06:51:57.732Z,35.60
2022-08-30T06:56:58.561Z,35.60
2022-08-30T06:59:32.444Z,35.70
2022-08-30T07:02:09.936Z,35.70
2022-08-30T07:09:52.266Z,35.70
2022-08-30T07:12:19.421Z,35.70
2022-08-30T07:17:43.813Z,35.80
2022-08-30T07:20:11.064Z,35.70
2022-08-30T07:22:38.143Z,35.70
2022-08-30T07:25:10.943Z,35.80
2022-08-30T07:27:38.106Z,35.70
2022-08-30T07:30:10.593Z,36.00
2022-08-30T07:37:39.105Z,35.70
2022-08-30T07:40:07.023Z,35.80
2022-08-30T07:42:34.077Z,35.80
2022-08-30T07:45:03.388Z,35.90
2022-08-30T07:47:34.895Z,35.80
2022-08-30T07:50:05.223Z,35.80
2022-08-30T07:52:32.984Z,36.40
2022-08-30T07:55:01.468Z,35.80
2022-08-30T07:57:45.540Z,35.80
2022-08-30T08:00:13.061Z,35.80
2022-08-30T08:02:41.848Z,35.80
2022-08-30T08:05:16.903Z,35.80
2022-08-30T08:07:52.694Z,35.80
2022-08-30T08:12:47.154Z,35.80
2022-08-30T08:15:16.387Z,35.80
2022-08-30T08:17:43.723Z,35.80
2022-08-30T08:20:11.889Z,35.80
2022-08-30T08:22:41.900Z,36.30
2022-08-30T08:25:16.938Z,35.80
2022-08-30T08:27:46.299Z,35.80
2022-08-30T08:32:41.833Z,35.70
2022-08-30T08:35:11.245Z,35.80
2022-08-30T08:37:39.362Z,35.80
2022-08-30T08:40:10.418Z,35.80
2022-08-30T08:43:19.176Z,35.80
2022-08-30T08:46:01.665Z,35.70
2022-08-30T08:48:59.041Z,35.80
2022-08-30T08:51:51.742Z,35.70
2022-08-30T08:54:48.670Z,35.70
2022-08-30T08:57:21.399Z,35.70
2022-08-30T08:59:55.087Z,35.80
2022-08-30T09:02:36.208Z,35.80
2022-08-30T09:07:38.394Z,35.70
2022-08-30T09:10:06.592Z,36.30
2022-08-30T09:12:33.933Z,35.80
2022-08-30T09:15:26.121Z,35.80
2022-08-30T09:18:04.351Z,35.80
2022-08-30T09:20:41.411Z,35.80
2022-08-30T09:23:14.409Z,35.80
2022-08-30T09:26:00.137Z,35.80
2022-08-30T09:28:50.887Z,35.80
2022-08-30T09:31:24.464Z,35.80
2022-08-30T09:34:06.176Z,35.80
2022-08-30T09:36:42.643Z,35.80
2022-08-30T09:39:41.334Z,35.80
2022-08-30T09:42:34.696Z,35.80
2022-08-30T09:45:11.131Z,35.80
2022-08-30T09:47:43.892Z,36.70
2022-08-30T09:50:19.844Z,35.80
2022-08-30T09:53:27.853Z,35.80
2022-08-30T09:56:35.604Z,35.70
2022-08-30T09:59:40.005Z,35.80
2022-08-30T10:02:33.083Z,35.80
2022-08-30T10:05:21.912Z,36.30
2022-08-30T10:08:41.462Z,35.80
2022-08-30T10:11:36.499Z,36.30
2022-08-30T10:14:28.897Z,35.70
2022-08-30T10:17:05.564Z,35.70
2022-08-30T10:20:22.519Z,35.70
2022-08-30T10:23:19.896Z,35.70
2022-08-30T10:25:55.093Z,35.60
2022-08-30T10:28:50.259Z,35.70
2022-08-30T10:31:55.583Z,35.70
2022-08-30T10:34:33.031Z,35.70
2022-08-30T10:37:25.679Z,35.70
2022-08-30T10:40:21.716Z,35.60
2022-08-30T10:42:51.351Z,35.70
2022-08-30T10:45:25.779Z,36.20
2022-08-30T10:48:16.589Z,35.60
2022-08-30T10:50:53.682Z,35.60
2022-08-30T10:53:33.855Z,35.60
2022-08-30T10:56:10.809Z,35.60
2022-08-30T10:58:42.418Z,35.70
2022-08-30T11:01:46.455Z,36.10
2022-08-30T11:04:24.873Z,35.50
2022-08-30T11:07:30.206Z,35.40
2022-08-30T11:10:27.714Z,35.40
2022-08-30T11:13:09.813Z,35.40
2022-08-30T11:16:01.916Z,35.30
2022-08-30T11:18:51.047Z,35.20
2022-08-30T11:21:38.445Z,35.20
2022-08-30T11:24:12.160Z,35.70
2022-08-30T11:26:46.167Z,35.20
2022-08-30T11:29:39.547Z,35.60
2022-08-30T11:32:12.327Z,35.10
2022-08-30T11:34:46.143Z,35.00
2022-08-30T11:37:44.735Z,35.50
2022-08-30T11:40:22.698Z,34.90
2022-08-30T11:42:53.449Z,35.00
2022-08-30T11:45:24.722Z,34.90
2022-08-30T11:48:04.387Z,35.00
2022-08-30T11:51:06.136Z,35.10
2022-08-30T11:53:46.335Z,35.00
2022-08-30T11:56:21.767Z,35.00
2022-08-30T11:59:09.897Z,35.00
2022-08-30T12:01:49.903Z,34.80
2022-08-30T12:07:04.918Z,34.70
2022-08-30T12:09:51.847Z,35.20
2022-08-30T12:12:47.675Z,34.60
2022-08-30T12:16:01.947Z,34.40
2022-08-30T12:18:55.596Z,34.50
2022-08-30T12:21:24.722Z,34.80
2022-08-30T12:24:18.767Z,34.30
2022-08-30T12:26:49.904Z,34.10
2022-08-30T12:29:30.005Z,34.10
2022-08-30T12:32:08.097Z,34.30
2022-08-30T12:34:41.222Z,33.80
2022-08-30T12:37:23.353Z,34.20
2022-08-30T12:40:10.851Z,34.10
2022-08-30T12:42:51.194Z,34.10
2022-08-30T12:45:24.136Z,34.20
2022-08-30T12:48:01.608Z,34.80
2022-08-30T12:50:53.604Z,33.80
2022-08-30T12:53:37.719Z,33.70
2022-08-30T12:56:21.271Z,34.00
2022-08-30T12:59:02.051Z,33.90
2022-08-30T13:01:32.377Z,33.40
2022-08-30T13:04:20.577Z,33.40
2022-08-30T13:07:00.109Z,33.20
2022-08-30T13:09:38.537Z,33.60
2022-08-30T13:12:26.984Z,33.30
2022-08-30T13:15:11.701Z,33.60
2022-08-30T13:17:38.928Z,33.20
2022-08-30T13:20:24.116Z,33.50
2022-08-30T13:23:10.697Z,32.90
2022-08-30T13:25:39.956Z,33.20
2022-08-30T13:28:08.261Z,33.20
2022-08-30T13:30:36.198Z,32.70
2022-08-30T13:33:05.622Z,33.10
2022-08-30T13:35:33.069Z,32.70
2022-08-30T13:38:02.469Z,33.10
2022-08-30T13:40:31.969Z,32.70
2022-08-30T13:42:59.106Z,32.70
2022-08-30T13:45:45.184Z,33.10
2022-08-30T13:48:15.453Z,33.20
2022-08-30T13:50:44.686Z,32.60
2022-08-30T13:53:11.794Z,32.50
2022-08-30T13:55:42.324Z,33.10
2022-08-30T14:00:40.833Z,32.30
2022-08-30T14:03:07.802Z,32.60
2022-08-30T14:06:15.843Z,32.60
2022-08-30T14:08:47.903Z,33.20
2022-08-30T14:11:21.224Z,32.60
2022-08-30T14:16:43.223Z,32.50
2022-08-30T14:19:12.561Z,33.50
2022-08-30T14:21:39.850Z,32.60
2022-08-30T14:24:09.666Z,32.50
2022-08-30T14:26:39.935Z,32.50
2022-08-30T14:29:10.685Z,33.00
2022-08-30T14:31:42.111Z,33.00
2022-08-30T14:34:13.032Z,33.00
2022-08-30T14:36:43.817Z,33.10
2022-08-30T14:39:20.028Z,33.10
2022-08-30T14:41:51.227Z,33.30
2022-08-30T14:50:59.626Z,32.60
2022-08-30T14:53:26.802Z,32.70
2022-08-30T14:56:03.277Z,32.60
2022-08-30T14:59:03.284Z,32.70
2022-08-30T15:16:22.487Z,32.60
2022-08-30T15:24:24.179Z,32.70
2022-08-30T15:27:13.189Z,32.80
2022-08-30T15:29:40.160Z,32.90
2022-08-30T15:32:07.675Z,32.80
2022-08-30T15:39:30.920Z,32.70
2022-08-30T15:44:31.829Z,32.60
2022-08-30T15:46:59.917Z,32.60
2022-08-30T15:51:59.619Z,32.50
2022-08-30T15:54:26.670Z,32.50
2022-08-30T15:56:59.415Z,32.50
2022-08-30T15:59:29.185Z,32.50
2022-08-30T16:06:53.262Z,32.50
2022-08-30T16:09:21.752Z,32.50
2022-08-30T16:14:16.350Z,32.50
2022-08-30T16:19:10.914Z,32.40
2022-08-30T16:24:10.591Z,32.30
2022-08-30T16:26:42.350Z,32.20
2022-08-30T16:31:38.469Z,32.10
2022-08-30T16:39:08.219Z,32.10
2022-08-30T16:44:05.588Z,32.00
2022-08-30T16:46:34.067Z,32.00
2022-08-30T16:49:02.294Z,32.00
2022-08-30T16:51:33.062Z,32.00
2022-08-30T17:06:11.634Z,32.20
2022-08-30T17:08:39.133Z,32.20
2022-08-30T17:11:07.119Z,32.10
2022-08-30T17:13:36.465Z,32.00
2022-08-30T17:16:05.552Z,32.00
2022-08-30T17:18:34.876Z,31.90
2022-08-30T17:21:05.188Z,31.90
2022-08-30T17:23:35.022Z,32.00
2022-08-30T17:26:02.419Z,32.40
2022-08-30T17:28:29.892Z,31.80
2022-08-30T17:30:58.615Z,31.80
2022-08-30T17:33:25.959Z,31.80
2022-08-30T17:35:54.358Z,31.80
2022-08-30T17:38:23.121Z,31.80
2022-08-30T17:40:50.734Z,31.70
2022-08-30T17:43:19.326Z,31.80
2022-08-30T17:45:46.228Z,32.20
2022-08-30T17:48:13.269Z,31.80
2022-08-30T17:50:40.230Z,31.90
2022-08-30T17:53:07.683Z,31.80
2022-08-30T17:55:34.634Z,31.70
2022-08-30T17:58:02.009Z,31.60
2022-08-30T18:02:57.793Z,31.70
2022-08-30T18:05:25.415Z,31.60
2022-08-30T18:07:52.798Z,31.50
2022-08-30T18:12:55.566Z,31.70
2022-08-30T18:15:22.552Z,31.60
2022-08-30T18:17:49.837Z,31.60
2022-08-30T18:20:17.490Z,31.60
2022-08-30T18:22:44.530Z,31.60
2022-08-30T18:25:11.526Z,31.60
2022-08-30T18:27:39.350Z,31.70
2022-08-30T18:30:11.663Z,32.10
2022-08-30T18:32:39.020Z,31.60
2022-08-30T18:35:06.975Z,31.50
2022-08-30T18:37:36.329Z,32.10
2022-08-30T18:40:05.601Z,31.50
2022-08-30T18:42:33.291Z,31.50
2022-08-30T18:45:08.538Z,31.50
2022-08-30T18:47:42.633Z,31.40
2022-08-30T18:50:09.734Z,31.40
2022-08-30T18:52:36.934Z,31.40
2022-08-30T18:55:04.365Z,31.30
2022-08-30T18:57:33.314Z,31.90
2022-08-30T19:00:00.507Z,31.60
2022-08-30T19:02:27.979Z,32.20
2022-08-30T19:04:55.278Z,32.10
2022-08-30T19:07:28.894Z,31.60
2022-08-30T19:10:01.906Z,31.60
2022-08-30T19:12:30.135Z,32.20
2022-08-30T19:14:57.224Z,31.70
2022-08-30T19:17:26.458Z,31.20
2022-08-30T19:19:55.136Z,31.70
2022-08-30T19:22:26.829Z,31.70
2022-08-30T19:24:57.500Z,31.70
2022-08-30T19:27:37.895Z,31.70
2022-08-30T19:30:17.285Z,31.80
2022-08-30T19:32:48.491Z,32.30
2022-08-30T19:35:16.225Z,31.80
2022-08-30T19:37:45.721Z,31.80
2022-08-30T19:40:17.011Z,31.80
2022-08-30T19:42:46.421Z,31.90
2022-08-30T19:45:21.647Z,31.90
2022-08-30T19:47:50.091Z,32.00
2022-08-30T19:50:18.317Z,31.90
2022-08-30T19:52:52.763Z,31.90
2022-08-30T19:55:23.793Z,32.00
2022-08-30T19:57:57.291Z,32.00
2022-08-30T20:00:24.248Z,32.00
2022-08-30T20:02:51.368Z,32.00
2022-08-30T20:05:20.343Z,32.00
2022-08-30T20:07:51.158Z,32.00
2022-08-30T20:10:20.562Z,32.50
2022-08-30T20:12:50.306Z,32.10
2022-08-30T20:15:18.597Z,32.10
2022-08-30T20:18:05.615Z,32.20
2022-08-30T20:20:36.610Z,32.20
2022-08-30T20:23:05.294Z,32.10
2022-08-30T20:25:33.371Z,32.70
2022-08-30T20:28:00.999Z,32.20
2022-08-30T20:30:27.937Z,32.10
2022-08-30T20:32:54.938Z,32.20
2022-08-30T20:35:23.653Z,32.10
2022-08-30T20:37:50.991Z,32.20
2022-08-30T20:40:18.927Z,32.30
2022-08-30T20:45:17.232Z,32.20
2022-08-30T20:47:44.960Z,32.80
2022-08-30T20:50:15.970Z,32.20
2022-08-30T20:52:44.491Z,32.20
2022-08-30T20:55:13.414Z,32.20
2022-08-30T20:57:41.004Z,32.20
2022-08-30T21:00:11.980Z,32.30
2022-08-30T21:02:46.391Z,32.80
2022-08-30T21:05:15.585Z,32.30
2022-08-30T21:07:45.587Z,32.30
2022-08-30T21:10:13.700Z,32.30
2022-08-30T21:12:40.656Z,32.20
2022-08-30T21:15:26.944Z,32.40
2022-08-30T21:17:58.079Z,32.20
2022-08-30T21:20:24.994Z,32.20
2022-08-30T21:22:52.041Z,32.30
2022-08-30T21:25:19.621Z,32.30
2022-08-30T21:27:46.613Z,32.30
2022-08-30T21:30:14.950Z,32.30
2022-08-30T21:32:41.934Z,32.20
2022-08-30T21:35:28.229Z,32.20
2022-08-30T21:37:55.395Z,32.30
2022-08-30T21:40:22.396Z,32.30
2022-08-30T21:42:49.481Z,32.30
2022-08-30T21:45:16.535Z,32.90
2022-08-30T21:47:43.899Z,32.30
2022-08-30T21:50:12.031Z,32.30
2022-08-30T21:52:39.012Z,32.40
2022-08-30T21:55:06.516Z,32.40
2022-08-30T21:57:33.430Z,32.40
2022-08-30T22:00:00.384Z,32.40
2022-08-30T22:02:28.770Z,32.40
2022-08-30T22:04:56.089Z,32.40
2022-08-30T22:07:23.010Z,32.40
2022-08-30T22:09:50.077Z,32.30
2022-08-30T22:12:17.543Z,32.50
2022-08-30T22:14:44.658Z,32.50
2022-08-30T22:17:12.548Z,32.40
2022-08-30T22:19:39.503Z,32.50
2022-08-30T22:22:06.609Z,32.40
2022-08-30T22:24:33.485Z,32.50
2022-08-30T22:27:02.637Z,32.40
2022-08-30T22:29:30.435Z,32.50
2022-08-30T22:31:57.444Z,32.50
2022-08-30T22:34:24.594Z,32.60
2022-08-30T22:36:51.550Z,33.10
2022-08-30T22:39:18.646Z,32.50
2022-08-30T22:41:45.656Z,32.40
2022-08-30T22:44:13.286Z,32.40
2022-08-30T22:46:40.633Z,32.40
2022-08-30T22:49:10.531Z,32.50
2022-08-30T22:51:39.354Z,32.50
2022-08-30T22:54:10.251Z,32.50
2022-08-30T22:56:39.377Z,32.60
2022-08-30T22:59:08.841Z,33.00
2022-08-30T23:01:39.648Z,32.60
2022-08-30T23:04:08.381Z,32.60
2022-08-30T23:06:36.196Z,32.60
2022-08-30T23:09:05.792Z,32.70
2022-08-30T23:11:33.503Z,32.60
2022-08-30T23:14:02.364Z,32.70
2022-08-30T23:37:39.702Z,32.60
2022-08-30T23:40:26.698Z,33.20
2022-08-30T23:43:12.788Z,32.60
2022-08-30T23:45:58.649Z,32.80
2022-08-30T23:48:50.693Z,32.70
2022-08-30T23:51:38.167Z,32.80
2022-08-30T23:54:25.371Z,32.90
2022-08-30T23:57:11.666Z,32.80
2022-08-30T23:59:57.318Z,32.90
